Time;durP1;ratioP1;P1;durP2;ratioP2;P2;SDS_P1;SDS_P2;PMS_P1;PMS_P2;Temp;Humidity;BMP_temperature;BMP_pressure;BME280_temperature;BME280_humidity;BME280_pressure;Samples;Min_cycle;Max_cycle;Signal;HPM_P1;HPM_P2
2023/06/22 00:00:28;;;;;;;19.60;17.67;;;;;;;15.97;100.00;101959.63;4996898;28;20433;-44
2023/06/22 00:02:56;;;;;;;19.97;18.07;;;;;;;15.91;100.00;101963.13;4996674;28;20478;-45
2023/06/22 00:05:24;;;;;;;20.30;18.40;;;;;;;15.88;100.00;101963.53;4996553;28;21321;-43
2023/06/22 00:07:53;;;;;;;20.50;18.47;;;;;;;15.84;100.00;101957.72;4996707;28;20507;-45
2023/06/22 00:10:21;;;;;;;19.17;17.30;;;;;;;15.80;100.00;101961.03;4996826;28;20461;-46
2023/06/22 00:12:48;;;;;;;20.37;18.37;;;;;;;15.79;100.00;101965.56;4996484;28;20573;-47
2023/06/22 00:15:16;;;;;;;19.40;17.57;;;;;;;15.76;100.00;101960.59;4996272;28;20465;-43
2023/06/22 00:17:44;;;;;;;20.00;18.13;;;;;;;15.75;100.00;101950.84;4997012;28;20434;-44
2023/06/22 00:20:14;;;;;;;22.27;20.07;;;;;;;15.76;100.00;101962.44;4996354;28;21073;-43
2023/06/22 00:22:42;;;;;;;20.00;18.00;;;;;;;15.72;100.00;101950.41;4996386;28;20469;-44
2023/06/22 00:25:12;;;;;;;18.30;16.70;;;;;;;15.71;100.00;101960.34;4996162;28;20465;-45
2023/06/22 00:27:40;;;;;;;20.93;19.03;;;;;;;15.67;100.00;101961.78;4996974;28;20435;-43
2023/06/22 00:30:09;;;;;;;19.00;17.00;;;;;;;15.66;100.00;101968.19;4996608;28;20457;-44
2023/06/22 00:32:36;;;;;;;19.40;17.40;;;;;;;15.62;100.00;101968.81;4996588;28;20496;-47
2023/06/22 00:35:05;;;;;;;18.47;16.67;;;;;;;15.57;100.00;101966.69;4995737;28;20569;-44
2023/06/22 00:37:33;;;;;;;21.77;18.30;;;;;;;15.52;100.00;101969.16;4996058;28;20462;-43
2023/06/22 00:40:00;;;;;;;23.60;20.10;;;;;;;15.47;100.00;101964.38;4996668;28;20856;-45
2023/06/22 00:42:30;;;;;;;22.43;20.23;;;;;;;15.42;100.00;101971.34;4995861;28;20508;-48
2023/06/22 00:44:58;;;;;;;18.87;16.87;;;;;;;15.37;100.00;101981.88;4995895;28;21007;-43
2023/06/22 00:47:26;;;;;;;18.80;17.20;;;;;;;15.36;100.00;101972.97;4996636;28;20500;-43
2023/06/22 00:49:54;;;;;;;21.47;19.43;;;;;;;15.34;100.00;101980.41;4995389;28;20991;-42
2023/06/22 00:52:27;;;;;;;20.07;18.17;;;;;;;15.33;100.00;101977.91;4994595;28;20460;-44
2023/06/22 00:54:55;;;;;;;1628.10;167.93;;;;;;;15.30;100.00;101984.50;4994500;28;20501;-46
2023/06/22 00:57:25;;;;;;;21.87;19.57;;;;;;;15.29;100.00;101973.97;4994582;28;20430;-47
2023/06/22 00:59:55;;;;;;;20.57;18.67;;;;;;;15.27;100.00;101981.38;4994667;28;20486;-45
2023/06/22 01:02:22;;;;;;;23.17;20.77;;;;;;;15.24;100.00;101995.22;4994495;28;20461;-45
2023/06/22 01:04:50;;;;;;;19.50;17.50;;;;;;;15.19;100.00;101984.22;4994119;28;20498;-43
2023/06/22 01:07:27;;;;;;;22.70;20.50;;;;;;;15.16;100.00;101996.19;4994756;28;20434;-45
2023/06/22 01:10:00;;;;;;;23.63;21.20;;;;;;;15.16;100.00;101998.06;4994523;28;20827;-45
2023/06/22 01:12:31;;;;;;;23.27;20.77;;;;;;;15.11;100.00;101987.91;4994002;28;20430;-49
2023/06/22 01:15:05;;;;;;;22.83;20.77;;;;;;;15.07;100.00;101997.38;4993890;28;20841;-43
2023/06/22 01:17:33;;;;;;;22.70;20.57;;;;;;;15.05;100.00;101996.75;4994307;28;20509;-46
2023/06/22 01:20:05;;;;;;;24.07;20.47;;;;;;;15.08;100.00;101995.53;4994540;28;20462;-46
2023/06/22 01:22:44;;;;;;;23.97;21.33;;;;;;;15.07;100.00;101993.84;4994139;28;20942;-44
2023/06/22 01:25:16;;;;;;;20.97;19.07;;;;;;;15.04;100.00;101980.81;4994104;28;20549;-45
2023/06/22 01:27:56;;;;;;;24.80;22.40;;;;;;;14.99;100.00;101981.41;4994460;28;20418;-42
2023/06/22 01:30:26;;;;;;;24.10;21.60;;;;;;;14.95;100.00;101986.34;4994284;28;20520;-50
2023/06/22 01:32:55;;;;;;;27.30;23.97;;;;;;;14.90;100.00;101983.38;4993854;28;21011;-45
2023/06/22 01:35:24;;;;;;;25.47;22.87;;;;;;;14.86;100.00;101982.13;4993466;28;20465;-44
2023/06/22 01:37:52;;;;;;;24.77;22.27;;;;;;;14.80;100.00;101976.69;4994111;28;20438;-46
2023/06/22 01:40:21;;;;;;;25.47;22.90;;;;;;;14.78;100.00;101976.88;4993740;28;20466;-46
2023/06/22 01:42:49;;;;;;;20.80;18.90;;;;;;;14.78;100.00;101982.25;4993918;28;20439;-49
2023/06/22 01:45:18;;;;;;;28.20;23.63;;;;;;;14.73;100.00;101973.97;4993512;28;20474;-45
2023/06/22 01:47:48;;;;;;;23.77;21.40;;;;;;;14.69;100.00;101974.56;4993913;28;20433;-42
2023/06/22 01:50:16;;;;;;;24.30;21.90;;;;;;;14.70;100.00;101973.50;4993187;28;20504;-44
2023/06/22 01:52:43;;;;;;;24.63;22.17;;;;;;;14.68;100.00;101976.41;4993431;28;20844;-44
2023/06/22 01:55:11;;;;;;;22.57;20.40;;;;;;;14.68;100.00;101978.25;4993445;28;20586;-46
2023/06/22 01:57:40;;;;;;;21.73;19.83;;;;;;;14.66;100.00;101981.16;4993717;28;20434;-44
2023/06/22 02:00:12;;;;;;;25.23;22.53;;;;;;;14.67;100.00;101988.16;4993624;28;20847;-45
2023/06/22 02:02:46;;;;;;;23.23;20.93;;;;;;;14.67;100.00;101987.31;4993341;28;20469;-47
2023/06/22 02:05:18;;;;;;;26.43;23.83;;;;;;;14.63;100.00;101988.75;4992853;28;20474;-46
2023/06/22 02:07:50;;;;;;;23.77;21.57;;;;;;;14.61;100.00;101993.47;4993431;28;20936;-44
2023/06/22 02:10:22;;;;;;;24.70;22.10;;;;;;;14.58;100.00;101989.31;4993376;28;20454;-45
2023/06/22 02:12:52;;;;;;;28.17;23.73;;;;;;;14.53;100.00;101991.75;4993114;28;20457;-46
2023/06/22 02:15:21;;;;;;;29.77;26.67;;;;;;;14.51;100.00;101990.28;4992922;28;20470;-44
2023/06/22 02:17:49;;;;;;;25.37;22.90;;;;;;;14.49;100.00;101987.78;4993167;28;20434;-47
2023/06/22 02:20:18;;;;;;;25.77;22.07;;;;;;;14.47;100.00;102000.56;4993312;28;20465;-49
2023/06/22 02:22:46;;;;;;;25.17;22.67;;;;;;;14.43;100.00;102001.13;4993129;28;20434;-49
2023/06/22 02:25:14;;;;;;;26.00;23.40;;;;;;;14.37;100.00;102000.03;4992799;28;20979;-49
2023/06/22 02:27:42;;;;;;;26.10;23.40;;;;;;;14.37;100.00;102005.41;4993304;28;20844;-47
2023/06/22 02:30:10;;;;;;;25.47;22.83;;;;;;;14.34;100.00;102006.63;4993031;28;20461;-46
2023/06/22 02:32:42;;;;;;;25.27;22.93;;;;;;;14.37;100.00;102010.78;4992791;28;20470;-47
2023/06/22 02:35:10;;;;;;;28.10;25.50;;;;;;;14.36;100.00;102011.81;4992542;28;20995;-46
2023/06/22 02:37:41;;;;;;;27.80;25.03;;;;;;;14.33;100.00;102004.16;4992947;28;20434;-47
2023/06/22 02:40:10;;;;;;;27.43;24.90;;;;;;;14.31;100.00;102006.13;4992775;28;20545;-47
2023/06/22 02:42:38;;;;;;;24.37;21.83;;;;;;;14.31;100.00;102006.13;4992824;28;20435;-47
2023/06/22 02:45:06;;;;;;;26.97;24.37;;;;;;;14.30;100.00;102021.44;4992521;28;20536;-43
2023/06/22 02:47:34;;;;;;;26.43;24.00;;;;;;;14.29;100.00;102022.44;4992877;28;20935;-42
2023/06/22 02:50:02;;;;;;;25.10;22.50;;;;;;;14.30;100.00;102004.50;4992905;28;20465;-44
2023/06/22 02:52:29;;;;;;;26.73;24.13;;;;;;;14.35;100.00;102004.78;4992558;28;20434;-46
2023/06/22 02:54:58;;;;;;;27.00;24.23;;;;;;;14.38;100.00;102009.75;4992303;28;20462;-47
2023/06/22 02:57:26;;;;;;;33.03;24.80;;;;;;;14.39;100.00;102006.06;4992475;28;20971;-43
2023/06/22 02:59:55;;;;;;;30.23;27.30;;;;;;;14.40;100.00;102008.53;4992495;28;21027;-46
2023/06/22 03:02:22;;;;;;;28.93;26.20;;;;;;;14.43;100.00;102001.13;4992359;28;20434;-44
2023/06/22 03:04:53;;;;;;;28.30;25.60;;;;;;;14.50;100.00;101994.81;4992076;28;20805;-45
2023/06/22 03:07:21;;;;;;;27.27;24.77;;;;;;;14.58;100.00;101999.22;4992596;28;20434;-45
2023/06/22 03:09:48;;;;;;;22.63;20.63;;;;;;;14.64;100.00;102012.69;4992328;28;20481;-42
2023/06/22 03:12:18;;;;;;;26.17;23.73;;;;;;;14.71;100.00;102002.03;4992422;28;20434;-44
2023/06/22 03:14:45;;;;;;;28.50;25.40;;;;;;;14.77;100.00;102006.63;4992285;28;20512;-43
2023/06/22 03:17:13;;;;;;;26.90;24.30;;;;;;;14.85;100.00;101999.25;4992532;28;20426;-43
2023/06/22 03:19:41;;;;;;;26.30;23.90;;;;;;;14.94;100.00;101994.56;4992584;28;20880;-44
2023/06/22 03:22:08;;;;;;;25.90;23.50;;;;;;;15.01;100.00;101994.63;4992066;28;20438;-44
2023/06/22 03:24:39;;;;;;;23.40;21.00;;;;;;;15.10;100.00;101996.16;4991987;28;20469;-43
2023/06/22 03:27:07;;;;;;;26.90;24.40;;;;;;;15.33;100.00;101994.03;4992358;28;20449;-47
2023/06/22 03:29:36;;;;;;;27.10;24.83;;;;;;;15.99;100.00;101995.22;4992189;28;20482;-44
2023/06/22 03:32:06;;;;;;;26.10;23.70;;;;;;;16.77;100.00;101999.97;4972708;28;20964;-45
2023/06/22 03:34:34;;;;;;;26.30;24.13;;;;;;;17.20;100.00;101999.53;4972230;28;20463;-49
2023/06/22 03:37:02;;;;;;;21.83;20.13;;;;;;;17.18;100.00;101988.94;4972670;28;21104;-46
2023/06/22 03:39:30;;;;;;;28.73;26.03;;;;;;;17.19;100.00;101984.38;4972839;28;20521;-46
2023/06/22 03:41:59;;;;;;;23.77;21.80;;;;;;;17.20;100.00;101986.88;4972483;28;20514;-45
2023/06/22 03:44:26;;;;;;;22.17;20.33;;;;;;;17.24;100.00;101982.72;4972170;28;20478;-45
2023/06/22 03:46:56;;;;;;;25.07;22.77;;;;;;;17.26;100.00;101994.13;4972761;28;20944;-48
2023/06/22 03:49:24;;;;;;;24.40;22.30;;;;;;;17.32;100.00;101985.22;4972352;28;20991;-44
2023/06/22 03:51:51;;;;;;;23.40;21.47;;;;;;;17.40;100.00;101984.13;4983906;28;20513;-46
2023/06/22 03:54:19;;;;;;;27.53;25.00;;;;;;;17.48;100.00;101987.44;4991633;28;20433;-46
2023/06/22 03:56:48;;;;;;;27.93;25.30;;;;;;;17.63;100.00;101988.03;4991965;28;20430;-45
2023/06/22 03:59:16;;;;;;;24.67;22.50;;;;;;;17.74;100.00;101989.22;4991966;28;20873;-47
2023/06/22 04:01:44;;;;;;;27.27;24.70;;;;;;;17.85;100.00;101985.06;4991746;28;20442;-44
2023/06/22 04:04:13;;;;;;;24.80;22.80;;;;;;;17.93;100.00;101992.91;4992161;28;20449;-45
2023/06/22 04:06:41;;;;;;;24.93;22.73;;;;;;;17.96;100.00;101993.31;4991568;28;20478;-45
2023/06/22 04:09:09;;;;;;;23.87;21.93;;;;;;;17.97;100.00;101988.75;4991650;28;20860;-49
2023/06/22 04:11:37;;;;;;;26.63;24.37;;;;;;;18.03;100.00;101998.69;4991568;28;20474;-47
2023/06/22 04:14:04;;;;;;;25.37;22.83;;;;;;;18.12;100.00;101997.38;4993777;28;20441;-44
2023/06/22 04:16:32;;;;;;;20.77;19.07;;;;;;;18.23;100.00;101999.38;4994403;28;21041;-45
2023/06/22 04:19:00;;;;;;;20.50;18.70;;;;;;;18.37;100.00;102002.84;4995144;28;20465;-43
2023/06/22 04:21:29;;;;;;;21.70;19.80;;;;;;;18.52;100.00;102004.22;4995377;28;20860;-46
2023/06/22 04:23:56;;;;;;;25.00;22.77;;;;;;;18.56;100.00;102004.63;4994829;28;20839;-46
2023/06/22 04:26:24;;;;;;;22.57;20.60;;;;;;;18.73;100.00;102011.97;5012784;28;20484;-43
2023/06/22 04:28:55;;;;;;;22.90;20.90;;;;;;;18.94;100.00;102012.63;5006378;28;20900;-47
2023/06/22 04:31:31;;;;;;;20.13;18.50;;;;;;;19.35;100.00;102016.41;5014542;28;20795;-45
2023/06/22 04:34:05;;;;;;;21.00;19.03;;;;;;;19.72;100.00;102008.31;5014601;28;20451;-44
2023/06/22 04:36:38;;;;;;;20.23;18.63;;;;;;;20.13;100.00;102016.56;5014146;28;20456;-44
2023/06/22 04:39:09;;;;;;;20.03;18.47;;;;;;;20.30;100.00;102009.50;5014025;28;20445;-47
2023/06/22 04:41:42;;;;;;;19.20;17.47;;;;;;;20.77;100.00;102012.31;5014078;28;20440;-44
2023/06/22 04:44:10;;;;;;;17.00;15.73;;;;;;;21.06;100.00;102005.13;5014728;28;20439;-45
2023/06/22 04:46:38;;;;;;;18.17;16.70;;;;;;;21.06;100.00;101994.28;4993931;28;20511;-51
2023/06/22 04:49:09;;;;;;;18.87;17.27;;;;;;;21.35;100.00;101999.66;4994259;28;20500;-47
2023/06/22 04:51:41;;;;;;;18.70;17.10;;;;;;;22.25;100.00;101989.00;4993753;28;20504;-47
2023/06/22 04:54:10;;;;;;;18.40;16.80;;;;;;;23.10;100.00;101992.41;4993004;28;20434;-47
2023/06/22 04:56:40;;;;;;;17.30;16.00;;;;;;;24.01;100.00;101990.06;5012292;28;20849;-50
2023/06/22 04:59:12;;;;;;;15.43;14.13;;;;;;;25.06;100.00;101995.72;5011869;28;20514;-47
2023/06/22 05:01:40;;;;;;;16.90;15.40;;;;;;;25.86;100.00;101987.13;5011655;28;20595;-45
2023/06/22 05:04:09;;;;;;;14.40;13.17;;;;;;;26.75;100.00;101983.22;5012098;28;20429;-48
2023/06/22 05:06:37;;;;;;;18.33;16.73;;;;;;;27.43;100.00;101981.78;5010855;28;20491;-45
2023/06/22 05:09:09;;;;;;;17.60;16.20;;;;;;;27.71;100.00;101981.13;5011456;28;21008;-45
2023/06/22 05:11:36;;;;;;;17.13;15.73;;;;;;;28.09;89.63;101974.09;5011423;28;20433;-47
2023/06/22 05:14:04;;;;;;;15.70;14.27;;;;;;;28.56;90.70;101971.53;5011057;28;20819;-44
2023/06/22 05:16:32;;;;;;;15.33;14.07;;;;;;;29.18;85.16;101975.34;5010760;28;20464;-49
2023/06/22 05:19:01;;;;;;;16.17;14.57;;;;;;;29.27;88.69;101981.88;5011256;28;20492;-45
2023/06/22 05:21:29;;;;;;;14.27;13.03;;;;;;;29.95;79.38;101979.72;5011206;28;20831;-47
2023/06/22 05:24:00;;;;;;;15.20;14.07;;;;;;;30.29;80.86;101973.13;5010821;28;20240;-47
2023/06/22 05:26:30;;;;;;;16.90;15.57;;;;;;;31.00;75.81;101976.41;5009782;28;20347;-46
2023/06/22 05:29:00;;;;;;;15.80;14.60;;;;;;;31.43;73.75;101989.88;5010668;28;20217;-43
2023/06/22 05:31:28;;;;;;;12.53;11.57;;;;;;;32.02;70.35;101986.16;5010439;28;20220;-45
2023/06/22 05:33:57;;;;;;;13.60;12.43;;;;;;;32.21;64.01;101990.41;5010852;28;20225;-45
2023/06/22 05:36:25;;;;;;;11.43;10.52;;;;;;;32.48;64.18;101992.25;5010234;28;20751;-43
2023/06/22 05:38:53;;;;;;;11.52;10.73;;;;;;;32.52;57.53;101985.00;5010485;28;20623;-45
2023/06/22 05:41:21;;;;;;;10.95;10.18;;;;;;;32.36;57.96;101980.13;5010563;28;20213;-44
2023/06/22 05:43:50;;;;;;;10.95;10.05;;;;;;;32.58;56.93;101988.47;5010501;28;20474;-44
2023/06/22 05:46:18;;;;;;;10.85;9.80;;;;;;;32.99;56.33;101986.28;4993225;28;20240;-44
2023/06/22 05:48:46;;;;;;;12.38;10.77;;;;;;;32.90;55.31;101979.88;4991226;28;20265;-45
2023/06/22 05:51:14;;;;;;;10.13;9.43;;;;;;;33.23;53.52;101977.63;4991088;28;20210;-46
2023/06/22 05:53:44;;;;;;;10.15;9.45;;;;;;;33.39;53.38;101987.13;4990723;28;20293;-43
2023/06/22 05:56:12;;;;;;;9.52;8.73;;;;;;;33.61;52.63;101987.06;4990402;28;20225;-44
2023/06/22 05:58:39;;;;;;;10.27;9.38;;;;;;;33.83;48.68;101986.13;4990751;28;20652;-45
2023/06/22 06:01:08;;;;;;;8.07;7.38;;;;;;;33.90;49.37;101989.25;4990802;28;20297;-47
2023/06/22 06:03:41;;;;;;;7.00;6.45;;;;;;;34.36;47.71;101989.44;4990698;28;20234;-44
2023/06/22 06:06:10;;;;;;;6.70;6.18;;;;;;;34.62;47.50;101992.19;4990085;28;20639;-45
2023/06/22 06:08:38;;;;;;;9.25;8.55;;;;;;;34.25;45.76;101992.84;4990681;28;20246;-45
2023/06/22 06:11:06;;;;;;;8.65;7.75;;;;;;;33.54;45.12;101983.94;4990232;28;20237;-47
2023/06/22 06:13:34;;;;;;;8.93;8.25;;;;;;;33.81;47.03;101986.44;4990462;28;20623;-47
2023/06/22 06:16:01;;;;;;;9.82;8.93;;;;;;;32.76;47.43;101990.22;4990141;28;20233;-45
2023/06/22 06:18:31;;;;;;;9.07;8.38;;;;;;;32.49;48.37;101993.06;4990589;28;20218;-46
2023/06/22 06:20:59;;;;;;;7.90;7.05;;;;;;;32.64;48.34;101976.97;4990122;28;20256;-47
2023/06/22 06:23:26;;;;;;;7.10;6.50;;;;;;;32.18;49.16;101976.44;4990100;28;20281;-44
2023/06/22 06:25:54;;;;;;;7.43;6.82;;;;;;;32.51;48.73;101972.31;4990051;28;20226;-47
2023/06/22 06:28:22;;;;;;;6.60;5.95;;;;;;;32.80;48.48;101974.63;4990073;28;20190;-44
2023/06/22 06:30:51;;;;;;;12.13;7.38;;;;;;;32.82;45.94;101973.19;4990248;28;20279;-46
2023/06/22 06:33:20;;;;;;;6.70;6.25;;;;;;;31.98;44.70;101969.41;4989772;28;20644;-44
2023/06/22 06:35:53;;;;;;;6.13;5.78;;;;;;;31.91;46.77;101974.53;4989371;28;20226;-44
2023/06/22 06:38:20;;;;;;;7.38;6.88;;;;;;;31.89;47.13;101974.03;4990290;28;20260;-44
2023/06/22 06:40:48;;;;;;;6.65;6.15;;;;;;;32.55;47.24;101976.09;4990082;28;20210;-46
2023/06/22 06:43:16;;;;;;;5.90;5.53;;;;;;;32.99;46.24;101989.03;4989925;28;20195;-48
2023/06/22 06:45:44;;;;;;;5.90;5.60;;;;;;;33.53;47.15;101985.06;4989353;28;20229;-43
2023/06/22 06:48:12;;;;;;;6.78;6.22;;;;;;;33.59;44.96;101989.34;4990065;28;20244;-45
2023/06/22 06:50:40;;;;;;;6.63;6.13;;;;;;;33.33;44.21;101991.19;4990410;28;20204;-45
2023/06/22 06:53:09;;;;;;;6.82;6.00;;;;;;;33.59;44.36;101985.75;4989263;28;20250;-47
2023/06/22 06:55:37;;;;;;;6.93;6.35;;;;;;;33.66;43.75;101986.09;4989666;28;20677;-48
2023/06/22 06:58:07;;;;;;;6.75;6.25;;;;;;;34.07;40.44;101980.13;4989539;28;20621;-48
2023/06/22 07:00:35;;;;;;;5.68;5.35;;;;;;;33.91;40.75;101980.59;4989466;28;20319;-46
2023/06/22 07:03:03;;;;;;;5.68;5.22;;;;;;;33.74;43.22;101983.34;4989330;28;20201;-47
2023/06/22 07:05:31;;;;;;;6.68;6.18;;;;;;;33.79;42.98;101988.72;4989801;28;20229;-49
2023/06/22 07:07:59;;;;;;;6.65;6.05;;;;;;;33.72;42.29;101982.84;4989311;28;20263;-46
2023/06/22 07:10:29;;;;;;;6.03;5.63;;;;;;;33.52;41.19;101979.81;4989617;28;20467;-45
2023/06/22 07:12:57;;;;;;;6.22;5.72;;;;;;;33.66;40.09;101986.88;4989487;28;20198;-46
2023/06/22 07:15:25;;;;;;;5.68;5.22;;;;;;;33.17;41.07;101981.66;4989558;28;20218;-48
2023/06/22 07:17:53;;;;;;;6.70;6.15;;;;;;;33.45;42.01;101973.97;4989355;28;20268;-47
2023/06/22 07:20:21;;;;;;;5.32;4.93;;;;;;;33.67;39.50;101971.94;4989475;28;20225;-44
2023/06/22 07:22:48;;;;;;;6.47;6.07;;;;;;;33.46;39.47;101970.06;4989231;28;20198;-44
2023/06/22 07:25:17;;;;;;;7.60;6.95;;;;;;;33.42;40.96;101975.44;4989015;28;20226;-44
2023/06/22 07:27:47;;;;;;;8.27;7.55;;;;;;;33.27;39.30;101976.66;4988967;28;20210;-45
2023/06/22 07:30:15;;;;;;;7.05;6.43;;;;;;;33.85;40.40;101979.13;4989223;28;20764;-44
2023/06/22 07:32:43;;;;;;;6.60;6.20;;;;;;;34.18;40.66;101976.72;4989480;28;20255;-46
2023/06/22 07:35:11;;;;;;;10.27;6.18;;;;;;;35.08;39.83;101982.28;4988574;28;20225;-46
2023/06/22 07:37:38;;;;;;;5.88;5.43;;;;;;;35.03;38.51;101976.94;4989565;28;20194;-46
2023/06/22 07:40:08;;;;;;;5.65;5.20;;;;;;;35.44;38.85;101979.88;4989289;28;20305;-44
2023/06/22 07:42:36;;;;;;;6.40;5.80;;;;;;;35.26;37.58;101975.56;4988845;28;20194;-48
2023/06/22 07:45:07;;;;;;;6.90;6.40;;;;;;;34.78;38.58;101981.41;4988939;28;20226;-45
2023/06/22 07:47:36;;;;;;;6.47;5.88;;;;;;;34.74;38.08;101984.00;4989149;28;20218;-47
2023/06/22 07:50:05;;;;;;;5.82;5.25;;;;;;;34.90;37.89;101990.66;4992991;28;20257;-44
2023/06/22 07:52:33;;;;;;;6.38;5.88;;;;;;;34.74;38.84;101991.50;4993024;28;20198;-47
2023/06/22 07:55:00;;;;;;;7.88;7.13;;;;;;;34.40;38.22;101986.81;4992368;28;20273;-44
2023/06/22 07:57:33;;;;;;;5.63;5.25;;;;;;;34.24;38.62;101986.50;4993072;28;20198;-45
2023/06/22 08:00:04;;;;;;;5.88;5.38;;;;;;;34.03;38.65;101979.94;4992946;28;20221;-46
2023/06/22 08:02:33;;;;;;;5.32;4.82;;;;;;;33.76;38.66;101983.00;4992996;28;20253;-47
2023/06/22 08:05:00;;;;;;;6.05;5.32;;;;;;;33.61;38.71;101969.63;4992485;28;20222;-49
2023/06/22 08:07:47;;;;;;;5.15;4.75;;;;;;;32.38;39.15;101977.91;4992579;28;20218;-50
2023/06/22 08:10:16;;;;;;;6.05;5.65;;;;;;;31.84;40.09;101982.41;4992715;28;20235;-46
2023/06/22 08:12:44;;;;;;;6.40;5.88;;;;;;;31.69;40.71;101975.28;4992316;28;20222;-49
2023/06/22 08:15:12;;;;;;;5.65;5.32;;;;;;;31.72;41.09;101979.38;4992418;28;20234;-45
2023/06/22 08:17:41;;;;;;;5.47;4.83;;;;;;;31.67;40.82;101980.31;4992356;28;20233;-49
2023/06/22 08:20:11;;;;;;;6.37;5.13;;;;;;;31.16;41.21;101991.50;4992504;28;20550;-44
2023/06/22 08:22:39;;;;;;;5.60;5.10;;;;;;;31.05;41.44;101980.97;4992502;28;20206;-46
2023/06/22 08:25:09;;;;;;;5.60;5.10;;;;;;;30.89;41.46;101983.16;4992212;28;20226;-43
2023/06/22 08:27:36;;;;;;;5.23;5.03;;;;;;;30.76;41.40;101977.63;4992240;28;20272;-47
2023/06/22 08:30:06;;;;;;;6.07;5.60;;;;;;;30.68;41.07;101976.38;4992049;28;20420;-47
2023/06/22 08:32:34;;;;;;;5.73;5.27;;;;;;;30.66;41.83;101981.38;4992202;28;20285;-46
2023/06/22 08:35:03;;;;;;;6.67;6.07;;;;;;;30.63;42.42;101987.47;4991936;28;20226;-48
2023/06/22 08:37:35;;;;;;;7.63;6.57;;;;;;;30.45;42.73;101980.06;4992450;28;20511;-44
2023/06/22 08:40:05;;;;;;;6.50;6.10;;;;;;;30.77;41.22;101987.50;4992228;28;20461;-45
2023/06/22 08:42:33;;;;;;;5.77;5.27;;;;;;;29.71;42.28;101978.06;4991756;28;20499;-47
2023/06/22 08:45:01;;;;;;;4.87;4.57;;;;;;;29.44;41.56;101975.94;4991542;28;20461;-46
2023/06/22 08:47:29;;;;;;;5.73;5.23;;;;;;;29.13;44.00;101978.16;4992103;28;20226;-44
2023/06/22 08:49:57;;;;;;;5.87;4.53;;;;;;;29.04;43.52;101986.22;4991757;28;20450;-45
2023/06/22 08:52:26;;;;;;;5.90;5.40;;;;;;;28.82;45.20;101977.66;4991822;28;20532;-43
2023/06/22 08:54:54;;;;;;;6.20;5.70;;;;;;;28.59;46.25;101972.88;4991737;28;21157;-47
2023/06/22 08:57:22;;;;;;;5.80;5.40;;;;;;;28.71;44.82;101973.38;4991683;28;21002;-47
2023/06/22 08:59:52;;;;;;;6.00;5.70;;;;;;;28.16;47.13;101971.84;4991536;28;20815;-44
2023/06/22 09:02:20;;;;;;;5.63;5.20;;;;;;;28.00;46.56;101967.53;4991834;28;20432;-45
2023/06/22 09:04:48;;;;;;;6.40;5.70;;;;;;;28.00;47.96;101967.53;4991215;28;20461;-45
2023/06/22 09:07:22;;;;;;;6.27;5.57;;;;;;;27.85;48.76;101964.88;4991855;28;20437;-46
2023/06/22 09:09:51;;;;;;;5.93;5.00;;;;;;;28.08;46.77;101957.91;4991361;28;20634;-46
2023/06/22 09:12:24;;;;;;;6.47;4.73;;;;;;;27.85;47.54;101954.72;4991441;28;20923;-46
2023/06/22 09:14:52;;;;;;;6.00;5.50;;;;;;;27.72;48.49;101958.06;4990912;28;20488;-45
2023/06/22 09:17:20;;;;;;;5.67;5.27;;;;;;;27.49;47.60;101961.47;4992597;28;20441;-45
2023/06/22 09:19:48;;;;;;;6.50;5.70;;;;;;;27.20;47.31;101960.44;4994386;28;20455;-48
2023/06/22 09:22:16;;;;;;;5.23;4.87;;;;;;;27.21;47.62;101962.09;4994358;28;20440;-46
2023/06/22 09:24:44;;;;;;;4.70;4.50;;;;;;;27.52;47.76;101962.84;4994083;28;20464;-47
2023/06/22 09:27:13;;;;;;;5.20;4.80;;;;;;;28.22;46.61;101958.94;4994420;28;20507;-47
2023/06/22 09:29:41;;;;;;;5.73;5.37;;;;;;;28.41;46.28;101968.09;4994069;28;21010;-48
2023/06/22 09:32:09;;;;;;;5.00;4.60;;;;;;;28.56;44.78;101960.56;4994109;28;20436;-45
2023/06/22 09:34:37;;;;;;;5.80;5.20;;;;;;;28.32;44.71;101956.09;4993865;28;20469;-44
2023/06/22 09:37:06;;;;;;;6.30;5.80;;;;;;;28.01;44.57;101960.94;4994174;28;20484;-48
2023/06/22 09:39:34;;;;;;;6.17;5.77;;;;;;;28.26;45.07;101957.22;4994054;28;20449;-47
2023/06/22 09:42:01;;;;;;;5.80;5.33;;;;;;;28.50;44.63;101947.16;4993796;28;20445;-46
2023/06/22 09:44:30;;;;;;;5.70;5.40;;;;;;;28.96;43.23;101953.91;4993608;28;20488;-45
2023/06/22 09:46:58;;;;;;;6.90;5.03;;;;;;;28.95;43.21;101951.44;4993963;28;20520;-49
2023/06/22 09:49:26;;;;;;;5.30;4.90;;;;;;;29.44;42.34;101941.03;4993831;28;20480;-47
2023/06/22 09:52:14;;;;;;;5.00;4.77;;;;;;;29.60;41.56;101945.22;4993773;28;20444;-46
2023/06/22 09:54:41;;;;;;;5.07;4.77;;;;;;;29.67;41.72;101946.78;4993670;28;20823;-47
2023/06/22 09:57:09;;;;;;;5.20;4.67;;;;;;;29.91;42.02;101951.16;4993924;28;20935;-45
2023/06/22 09:59:39;;;;;;;5.27;4.90;;;;;;;29.77;41.58;101949.41;4993782;28;20446;-45
2023/06/22 10:02:08;;;;;;;5.67;5.17;;;;;;;29.75;41.45;101946.94;4993433;28;20436;-45
2023/06/22 10:04:36;;;;;;;5.67;5.30;;;;;;;30.03;41.68;101939.69;4993200;28;21018;-47
2023/06/22 10:07:06;;;;;;;5.00;4.50;;;;;;;30.14;40.86;101933.72;4993665;28;20430;-50
2023/06/22 10:09:34;;;;;;;5.93;4.77;;;;;;;30.06;40.68;101937.16;4993442;28;20478;-46
2023/06/22 10:12:01;;;;;;;5.10;4.80;;;;;;;29.96;40.54;101937.31;4993015;28;20441;-47
2023/06/22 10:14:29;;;;;;;5.10;4.80;;;;;;;29.00;41.31;101937.69;4992956;28;20532;-47
2023/06/22 10:16:58;;;;;;;5.23;4.70;;;;;;;29.20;43.26;101942.13;4993319;28;20437;-48
2023/06/22 10:19:26;;;;;;;4.73;4.43;;;;;;;28.36;46.42;101940.72;4993460;28;20497;-49
2023/06/22 10:21:55;;;;;;;5.53;5.23;;;;;;;28.09;47.07;101930.22;4993388;28;20438;-44
2023/06/22 10:24:23;;;;;;;5.00;4.67;;;;;;;28.35;46.97;101939.06;4993077;28;20433;-44
2023/06/22 10:26:50;;;;;;;5.00;4.70;;;;;;;28.20;47.40;101936.44;4993284;28;20433;-45
2023/06/22 10:29:19;;;;;;;4.97;4.67;;;;;;;28.20;47.45;101944.66;4986960;28;21045;-43
2023/06/22 10:31:47;;;;;;;5.27;4.80;;;;;;;28.31;47.29;101938.84;4993025;28;20500;-47
2023/06/22 10:34:16;;;;;;;4.80;4.50;;;;;;;28.46;45.83;101941.44;4993192;28;20469;-46
2023/06/22 10:36:46;;;;;;;4.80;4.50;;;;;;;27.86;47.29;101928.97;4993637;28;20470;-48
2023/06/22 10:39:13;;;;;;;4.73;4.43;;;;;;;28.29;46.54;101942.94;4993634;28;20507;-47
2023/06/22 10:41:41;;;;;;;4.73;4.40;;;;;;;28.69;45.77;101937.16;4992814;28;20445;-47
2023/06/22 10:44:09;;;;;;;4.73;4.43;;;;;;;28.61;46.13;101934.19;4993759;28;20461;-47
2023/06/22 10:46:37;;;;;;;5.00;4.57;;;;;;;28.15;46.90;101936.47;4992982;28;20477;-44
2023/06/22 10:49:05;;;;;;;5.20;4.50;;;;;;;28.02;47.34;101924.19;4993344;28;20481;-47
2023/06/22 10:51:34;;;;;;;5.03;4.73;;;;;;;27.97;45.82;101918.75;4992917;28;20429;-47
2023/06/22 10:54:04;;;;;;;5.47;4.47;;;;;;;27.89;46.59;101922.91;4993377;28;20456;-47
2023/06/22 10:56:33;;;;;;;4.80;4.50;;;;;;;28.65;45.48;101916.06;4992665;28;20457;-45
2023/06/22 10:59:01;;;;;;;5.40;5.10;;;;;;;27.87;45.83;101900.44;4993039;28;20450;-46
2023/06/22 11:01:31;;;;;;;5.13;4.83;;;;;;;28.24;46.27;101902.66;4993173;28;20442;-44
2023/06/22 11:04:03;;;;;;;5.40;5.00;;;;;;;27.92;46.94;101894.94;4993203;28;20524;-46
2023/06/22 11:06:33;;;;;;;5.40;4.90;;;;;;;28.06;47.69;101894.31;4992590;28;20898;-45
2023/06/22 11:09:01;;;;;;;5.17;4.87;;;;;;;27.88;46.06;101893.84;4992946;28;20840;-50
2023/06/22 11:11:39;;;;;;;4.50;4.30;;;;;;;27.89;46.88;101894.69;4992895;28;20440;-47
2023/06/22 11:14:06;;;;;;;5.33;5.03;;;;;;;27.85;46.55;101882.63;4993488;28;20801;-46
2023/06/22 11:16:34;;;;;;;5.17;4.83;;;;;;;28.11;48.19;101897.81;4992278;28;20489;-47
2023/06/22 11:19:03;;;;;;;4.53;4.27;;;;;;;27.93;48.37;101896.53;4993009;28;20845;-47
2023/06/22 11:21:31;;;;;;;4.43;4.13;;;;;;;27.47;50.42;101895.19;4992650;28;20429;-45